createdAt,value
2022-08-19T00:00:40.396Z,0
2022-08-19T00:02:05.727Z,0
2022-08-19T00:03:18.607Z,0
2022-08-19T00:04:53.900Z,0
2022-08-19T00:05:56.903Z,0
2022-08-19T00:06:59.706Z,0
2022-08-19T00:08:34.268Z,0
2022-08-19T00:09:36.955Z,0
2022-08-19T00:10:39.583Z,0
2022-08-19T00:12:21.639Z,0
2022-08-19T00:13:24.462Z,0
2022-08-19T00:14:27.290Z,0
2022-08-19T00:16:02.071Z,0
2022-08-19T00:17:04.810Z,0
2022-08-19T00:18:10.236Z,0
2022-08-19T00:19:44.751Z,0
2022-08-19T00:20:47.450Z,0
2022-08-19T00:21:50.401Z,0
2022-08-19T00:23:26.295Z,0
2022-08-19T00:24:29.134Z,0
2022-08-19T00:25:43.134Z,0
2022-08-19T00:27:48.899Z,0
2022-08-19T00:28:52.851Z,0
2022-08-19T00:29:58.533Z,0
2022-08-19T00:31:32.994Z,0
2022-08-19T00:32:41.806Z,0
2022-08-19T00:33:47.673Z,0
2022-08-19T00:35:22.456Z,0
2022-08-19T00:36:25.397Z,0
2022-08-19T00:37:30.651Z,0
2022-08-19T00:39:06.194Z,0
2022-08-19T00:40:12.203Z,0
2022-08-19T00:41:15.144Z,0
2022-08-19T00:42:50.982Z,0
2022-08-19T00:43:53.649Z,0
2022-08-19T00:44:56.281Z,0
2022-08-19T00:46:30.830Z,0
2022-08-19T00:47:39.157Z,0
2022-08-19T00:48:43.257Z,0
2022-08-19T00:50:17.713Z,0
2022-08-19T00:51:20.506Z,0
2022-08-19T00:52:23.521Z,0
2022-08-19T00:53:58.136Z,0
2022-08-19T00:55:04.084Z,0
2022-08-19T00:56:09.970Z,0
2022-08-19T00:57:44.682Z,0
2022-08-19T00:58:47.552Z,0
2022-08-19T01:00:40.469Z,0
2022-08-19T01:01:43.716Z,0
2022-08-19T01:02:46.606Z,0
2022-08-19T01:04:26.440Z,0
2022-08-19T01:05:29.209Z,0
2022-08-19T01:06:37.066Z,0
2022-08-19T01:08:18.189Z,0
2022-08-19T01:09:21.009Z,0
2022-08-19T01:10:23.888Z,0
2022-08-19T01:11:58.483Z,0
2022-08-19T01:13:01.070Z,0
2022-08-19T01:14:18.147Z,0
2022-08-19T01:15:52.592Z,0
2022-08-19T01:16:55.347Z,0
2022-08-19T01:17:58.198Z,0
2022-08-19T01:19:32.771Z,0
2022-08-19T01:20:47.227Z,0
2022-08-19T01:21:49.937Z,0
2022-08-19T01:23:37.198Z,0
2022-08-19T01:24:50.779Z,0
2022-08-19T01:25:56.944Z,0
2022-08-19T01:27:49.223Z,0
2022-08-19T01:29:07.325Z,0
2022-08-19T01:30:12.651Z,0
2022-08-19T01:31:55.944Z,0
2022-08-19T01:33:02.011Z,0
2022-08-19T01:34:05.091Z,0
2022-08-19T01:35:39.719Z,0
2022-08-19T01:36:42.405Z,0
2022-08-19T01:37:55.380Z,0
2022-08-19T01:39:30.133Z,0
2022-08-19T01:40:37.451Z,0
2022-08-19T01:41:40.204Z,0
2022-08-19T01:43:15.069Z,0
2022-08-19T01:44:46.025Z,0
2022-08-19T01:45:49.003Z,0
2022-08-19T01:47:27.902Z,0
2022-08-19T01:48:30.871Z,0
2022-08-19T01:49:33.734Z,0
2022-08-19T01:51:08.575Z,0
2022-08-19T01:52:11.281Z,0
2022-08-19T01:53:36.176Z,0
2022-08-19T01:55:10.751Z,0
2022-08-19T01:56:13.395Z,0
2022-08-19T01:57:16.076Z,0
2022-08-19T01:58:50.870Z,0
2022-08-19T01:59:53.427Z,0
2022-08-19T02:00:40.053Z,0
2022-08-19T02:01:48.500Z,0
2022-08-19T02:02:55.536Z,0
2022-08-19T02:04:30.109Z,0
2022-08-19T02:05:33.854Z,0
2022-08-19T02:06:43.811Z,0
2022-08-19T02:08:18.323Z,0
2022-08-19T02:09:25.241Z,0
2022-08-19T02:10:34.729Z,0
2022-08-19T02:12:09.143Z,0
2022-08-19T02:13:13.176Z,0
2022-08-19T02:14:15.989Z,0
2022-08-19T02:15:50.440Z,0
2022-08-19T02:16:53.483Z,0
2022-08-19T02:17:56.138Z,0
2022-08-19T02:19:36.414Z,0
2022-08-19T02:20:42.444Z,0
2022-08-19T02:21:45.419Z,0
2022-08-19T02:23:27.091Z,0
2022-08-19T02:24:29.954Z,0
2022-08-19T02:25:32.873Z,0
2022-08-19T02:27:07.654Z,0
2022-08-19T02:28:16.623Z,0
2022-08-19T02:29:22.334Z,0
2022-08-19T02:30:56.758Z,0
2022-08-19T02:31:59.422Z,0
2022-08-19T02:33:12.376Z,0
2022-08-19T02:34:46.936Z,0
2022-08-19T02:35:49.671Z,0
2022-08-19T02:37:09.124Z,0
2022-08-19T02:38:54.337Z,0
2022-08-19T02:39:58.476Z,0
2022-08-19T02:41:01.290Z,0
2022-08-19T02:42:42.724Z,0
2022-08-19T02:44:28.520Z,0
2022-08-19T02:45:34.290Z,0
2022-08-19T02:47:09.497Z,0
2022-08-19T02:48:27.339Z,0
2022-08-19T02:49:30.020Z,0
2022-08-19T02:51:21.588Z,0
2022-08-19T02:52:24.489Z,0
2022-08-19T02:53:27.283Z,0
2022-08-19T02:55:01.706Z,0
2022-08-19T02:56:14.256Z,0
2022-08-19T02:57:17.356Z,0
2022-08-19T02:58:54.541Z,0
2022-08-19T02:59:57.295Z,0
2022-08-19T03:00:45.217Z,0
2022-08-19T03:01:48.942Z,0
2022-08-19T03:02:51.771Z,0
2022-08-19T03:04:27.043Z,0
2022-08-19T03:06:02.694Z,0
2022-08-19T03:07:16.829Z,0
2022-08-19T03:08:51.238Z,0
2022-08-19T03:09:53.960Z,0
2022-08-19T03:10:56.689Z,0
2022-08-19T03:12:31.042Z,0
2022-08-19T03:13:33.830Z,0
2022-08-19T03:14:36.755Z,0
2022-08-19T03:16:11.519Z,0
2022-08-19T03:17:14.161Z,0
2022-08-19T03:18:19.812Z,0
2022-08-19T03:19:57.828Z,0
2022-08-19T03:21:00.656Z,0
2022-08-19T03:22:03.631Z,0
2022-08-19T03:23:38.159Z,0
2022-08-19T03:24:40.990Z,0
2022-08-19T03:25:44.806Z,0
2022-08-19T03:27:39.861Z,0
2022-08-19T03:28:42.911Z,0
2022-08-19T03:30:07.502Z,0
2022-08-19T03:32:44.405Z,0
2022-08-19T03:33:57.733Z,0
2022-08-19T03:35:00.408Z,0
2022-08-19T03:36:35.306Z,0
2022-08-19T03:37:38.071Z,0
2022-08-19T03:38:43.763Z,0
2022-08-19T03:40:22.347Z,0
2022-08-19T03:41:25.096Z,0
2022-08-19T03:43:19.373Z,0
2022-08-19T03:44:53.954Z,0
2022-08-19T03:45:56.950Z,0
2022-08-19T03:47:04.728Z,0
2022-08-19T03:48:39.328Z,0
2022-08-19T03:49:45.926Z,0
2022-08-19T03:50:48.752Z,0
2022-08-19T03:52:33.983Z,0
2022-08-19T03:53:36.658Z,0
2022-08-19T03:54:39.494Z,0
2022-08-19T03:56:14.104Z,0
2022-08-19T03:57:16.759Z,0
2022-08-19T03:58:21.763Z,0
2022-08-19T04:00:42.078Z,0
2022-08-19T04:01:57.362Z,0
2022-08-19T04:03:17.493Z,0
2022-08-19T04:04:52.044Z,0
2022-08-19T04:06:09.909Z,0
2022-08-19T04:07:13.735Z,0
2022-08-19T04:08:24.534Z,0
2022-08-19T04:09:59.645Z,0
2022-08-19T04:11:02.629Z,0
2022-08-19T04:12:12.437Z,0
2022-08-19T04:13:47.246Z,0
2022-08-19T04:14:50.186Z,0
2022-08-19T04:15:53.304Z,0
2022-08-19T04:17:38.244Z,0
2022-08-19T04:18:47.131Z,0
2022-08-19T04:19:50.082Z,0
2022-08-19T04:21:25.181Z,0
2022-08-19T04:22:28.202Z,0
2022-08-19T04:23:35.088Z,0
2022-08-19T04:25:13.941Z,0
2022-08-19T04:26:20.535Z,0
2022-08-19T04:27:23.477Z,0
2022-08-19T04:28:59.884Z,0
2022-08-19T04:30:02.963Z,0
2022-08-19T04:31:05.969Z,0
2022-08-19T04:32:40.817Z,0
2022-08-19T04:33:50.947Z,0
2022-08-19T04:35:30.705Z,0
2022-08-19T04:37:05.640Z,0
2022-08-19T04:38:08.479Z,0
2022-08-19T04:39:11.847Z,0
2022-08-19T04:40:47.105Z,0
2022-08-19T04:41:50.133Z,0
2022-08-19T04:42:59.526Z,0
2022-08-19T04:44:35.227Z,0
2022-08-19T04:45:50.849Z,0
2022-08-19T04:48:27.338Z,0
2022-08-19T04:50:16.063Z,0
2022-08-19T04:51:18.853Z,0
2022-08-19T04:52:21.618Z,0
2022-08-19T04:54:00.577Z,0
2022-08-19T04:55:08.345Z,0
2022-08-19T04:56:11.174Z,0
2022-08-19T04:57:46.037Z,0
2022-08-19T04:58:48.735Z,0
2022-08-19T04:59:51.578Z,0
2022-08-19T05:00:43.797Z,0
2022-08-19T05:01:47.337Z,0
2022-08-19T05:02:51.314Z,0
2022-08-19T05:04:33.074Z,0
2022-08-19T05:05:50.511Z,0
2022-08-19T05:06:53.240Z,0
2022-08-19T05:08:48.586Z,0
2022-08-19T05:10:21.139Z,0.435
2022-08-19T05:11:31.952Z,0
2022-08-19T05:13:06.809Z,0
2022-08-19T05:14:10.108Z,0
2022-08-19T05:15:13.002Z,0
2022-08-19T05:16:47.634Z,0.435
2022-08-19T05:18:01.322Z,0
2022-08-19T05:19:04.421Z,0.435
2022-08-19T05:20:41.994Z,0.435
2022-08-19T05:21:46.400Z,0
2022-08-19T05:22:49.373Z,0
2022-08-19T05:24:44.136Z,0.435
2022-08-19T05:26:01.235Z,0.435
2022-08-19T05:27:04.038Z,0.435
2022-08-19T05:28:41.672Z,0.435
2022-08-19T05:29:53.412Z,0.435
2022-08-19T05:31:15.139Z,0.435
2022-08-19T05:32:50.517Z,0.435
2022-08-19T05:33:56.738Z,0.585
2022-08-19T05:34:59.768Z,0.585
2022-08-19T05:36:37.867Z,0.585
2022-08-19T05:37:40.832Z,0.585
2022-08-19T05:38:43.909Z,0.585
2022-08-19T05:40:20.382Z,0.585
2022-08-19T05:41:25.741Z,0.585
2022-08-19T05:42:28.523Z,0.585
2022-08-19T05:44:09.715Z,0.585
2022-08-19T05:45:12.453Z,0.585
2022-08-19T05:46:16.638Z,0.735
2022-08-19T05:47:53.567Z,0.735
2022-08-19T05:49:00.323Z,0.735
2022-08-19T05:50:05.069Z,0.885
2022-08-19T05:51:45.748Z,0.885
2022-08-19T05:52:57.694Z,0.885
2022-08-19T05:54:00.802Z,0.885
2022-08-19T05:55:35.569Z,1.02
2022-08-19T05:56:38.456Z,1.02
2022-08-19T05:57:41.970Z,1.02
2022-08-19T05:59:19.398Z,1.02
2022-08-19T06:00:45.172Z,0.885
2022-08-19T06:01:48.205Z,1.02
2022-08-19T06:02:51.787Z,1.02
2022-08-19T06:04:29.114Z,1.02
2022-08-19T06:05:32.099Z,1.17
2022-08-19T06:06:49.303Z,1.02
2022-08-19T06:08:39.667Z,1.02
2022-08-19T06:09:43.664Z,1.17
2022-08-19T06:10:57.468Z,1.17
2022-08-19T06:12:32.089Z,1.17
2022-08-19T06:13:40.813Z,1.17
2022-08-19T06:15:06.182Z,1.17
2022-08-19T06:16:41.028Z,1.17
2022-08-19T06:17:44.098Z,1.32
2022-08-19T06:18:46.939Z,1.17
2022-08-19T06:20:39.897Z,1.32
2022-08-19T06:21:57.074Z,1.32
2022-08-19T06:22:59.966Z,1.32
2022-08-19T06:24:38.473Z,1.32
2022-08-19T06:25:47.670Z,1.32
2022-08-19T06:26:50.536Z,1.32
2022-08-19T06:28:43.632Z,1.47
2022-08-19T06:29:52.560Z,1.32
2022-08-19T06:30:55.503Z,1.32
2022-08-19T06:32:29.885Z,1.47
2022-08-19T06:33:33.686Z,1.32
2022-08-19T06:34:36.631Z,1.32
2022-08-19T06:36:11.477Z,1.32
2022-08-19T06:37:14.401Z,1.32
2022-08-19T06:38:17.836Z,1.47
2022-08-19T06:39:54.963Z,1.47
2022-08-19T06:40:58.505Z,1.47
2022-08-19T06:42:16.840Z,1.47
2022-08-19T06:44:18.897Z,1.755
2022-08-19T06:45:34.606Z,2.055
2022-08-19T06:46:40.914Z,2.055
2022-08-19T06:48:51.642Z,2.49
2022-08-19T06:49:56.003Z,2.49
2022-08-19T06:51:19.503Z,2.49
2022-08-19T06:53:10.411Z,2.19
2022-08-19T06:54:37.776Z,2.055
2022-08-19T06:56:01.803Z,2.055
2022-08-19T06:57:39.013Z,2.055
2022-08-19T06:58:43.557Z,2.19
2022-08-19T06:59:46.562Z,2.19
2022-08-19T07:00:41.705Z,2.19
2022-08-19T07:01:44.895Z,2.19
2022-08-19T07:02:58.662Z,2.19
2022-08-19T07:04:42.477Z,2.34
2022-08-19T07:05:51.430Z,2.34
2022-08-19T07:07:36.600Z,2.34
2022-08-19T07:09:19.676Z,2.34
2022-08-19T07:10:31.509Z,2.34
2022-08-19T07:11:41.402Z,2.34
2022-08-19T07:13:25.536Z,2.34
2022-08-19T07:14:36.732Z,2.34
2022-08-19T07:15:41.529Z,2.34
2022-08-19T07:17:34.687Z,2.49
2022-08-19T07:18:41.296Z,2.49
2022-08-19T07:19:47.596Z,2.34
2022-08-19T07:21:35.337Z,2.49
2022-08-19T07:22:41.746Z,2.34
2022-08-19T07:23:46.343Z,2.64
2022-08-19T07:25:21.548Z,2.49
2022-08-19T07:26:51.848Z,2.49
2022-08-19T07:28:01.528Z,2.49
2022-08-19T07:30:02.057Z,2.64
2022-08-19T07:31:11.638Z,2.64
2022-08-19T07:32:22.837Z,2.64
2022-08-19T07:34:04.611Z,2.64
2022-08-19T07:35:08.511Z,2.64
2022-08-19T07:36:11.572Z,2.64
2022-08-19T07:37:50.462Z,2.64
2022-08-19T07:38:56.539Z,2.79
2022-08-19T07:40:00.345Z,2.64
2022-08-19T07:41:35.417Z,2.49
2022-08-19T07:42:41.684Z,2.79
2022-08-19T07:43:52.080Z,2.79
2022-08-19T07:45:26.939Z,2.925
2022-08-19T07:46:36.159Z,2.925
2022-08-19T07:48:19.383Z,2.925
2022-08-19T07:49:54.195Z,2.925
2022-08-19T07:50:56.954Z,2.925
2022-08-19T07:52:05.278Z,2.925
2022-08-19T07:53:45.344Z,3.075
2022-08-19T07:54:48.431Z,3.075
2022-08-19T07:56:11.501Z,2.925
2022-08-19T07:57:46.478Z,2.925
2022-08-19T07:58:49.469Z,3.075
2022-08-19T07:59:52.571Z,3.075
2022-08-19T08:00:46.996Z,3.225
2022-08-19T08:01:58.962Z,3.225
2022-08-19T08:03:02.886Z,3.075
2022-08-19T08:04:37.466Z,3.075
2022-08-19T08:05:43.631Z,3.075
2022-08-19T08:06:47.191Z,3.075
2022-08-19T08:08:22.017Z,3.075
2022-08-19T08:09:39.618Z,3.075
2022-08-19T08:10:58.898Z,3.075
2022-08-19T08:13:25.728Z,3.075
2022-08-19T08:15:08.300Z,3.51
2022-08-19T08:16:19.471Z,3.51
2022-08-19T08:18:20.326Z,3.225
2022-08-19T08:19:42.139Z,3.225
2022-08-19T08:20:45.081Z,3.225
2022-08-19T08:22:19.763Z,3.51
2022-08-19T08:23:22.860Z,3.51
2022-08-19T08:24:28.450Z,3.66
2022-08-19T08:26:07.498Z,3.51
2022-08-19T08:27:32.779Z,3.66
2022-08-19T08:28:41.195Z,3.66
2022-08-19T08:30:27.153Z,3.66
2022-08-19T08:31:39.000Z,3.81
2022-08-19T08:32:43.751Z,3.66
2022-08-19T08:34:32.748Z,3.81
2022-08-19T08:35:35.822Z,3.81
2022-08-19T08:36:39.029Z,3.66
2022-08-19T08:38:14.705Z,3.81
2022-08-19T08:39:17.657Z,3.96
2022-08-19T08:40:24.748Z,3.81
2022-08-19T08:41:59.599Z,3.81
2022-08-19T08:44:05.410Z,3.96
2022-08-19T08:45:59.265Z,3.96
2022-08-19T08:47:04.157Z,3.96
2022-08-19T08:48:28.250Z,3.96
2022-08-19T08:50:10.299Z,3.96
2022-08-19T08:51:16.017Z,3.96
2022-08-19T08:52:32.140Z,3.96
2022-08-19T08:54:15.644Z,3.96
2022-08-19T08:55:27.593Z,4.095
2022-08-19T08:56:41.527Z,4.245
2022-08-19T08:58:16.469Z,4.095
2022-08-19T08:59:22.993Z,3.96
2022-08-19T09:00:44.022Z,4.095
2022-08-19T09:01:53.029Z,4.095
2022-08-19T09:03:02.453Z,3.96
2022-08-19T09:04:41.080Z,3.96
2022-08-19T09:06:01.003Z,4.095
2022-08-19T09:07:17.977Z,4.245
2022-08-19T09:09:23.588Z,4.245
2022-08-19T09:10:44.296Z,4.095
2022-08-19T09:12:17.365Z,3.96
2022-08-19T09:14:00.275Z,4.245
2022-08-19T09:15:15.424Z,4.395
2022-08-19T09:16:18.826Z,4.395
2022-08-19T09:18:01.552Z,3.81
2022-08-19T09:19:04.750Z,4.245
2022-08-19T09:20:10.413Z,4.395
2022-08-19T09:21:58.316Z,4.395
2022-08-19T09:23:02.392Z,4.395
2022-08-19T09:24:09.291Z,4.245
2022-08-19T09:25:54.808Z,4.395
2022-08-19T09:27:48.880Z,4.395
2022-08-19T09:29:00.083Z,4.245
2022-08-19T09:30:38.319Z,4.245
2022-08-19T09:31:41.134Z,4.245
2022-08-19T09:32:58.762Z,4.395
2022-08-19T09:34:51.327Z,4.695
2022-08-19T09:36:36.815Z,4.395
2022-08-19T09:37:46.214Z,4.245
2022-08-19T09:39:47.914Z,4.395
2022-08-19T09:41:00.352Z,4.395
2022-08-19T09:42:16.428Z,4.395
2022-08-19T09:44:17.071Z,4.545
2022-08-19T09:45:27.425Z,4.545
2022-08-19T09:46:35.271Z,4.395
2022-08-19T09:48:18.865Z,4.545
2022-08-19T09:49:30.322Z,4.545
2022-08-19T09:50:51.669Z,4.395
2022-08-19T09:52:38.597Z,4.545
2022-08-19T09:53:42.999Z,4.545
2022-08-19T09:54:57.672Z,4.545
2022-08-19T09:56:42.497Z,4.695
2022-08-19T09:57:45.517Z,4.545
2022-08-19T09:58:54.638Z,4.545
2022-08-19T10:00:40.167Z,4.395
2022-08-19T10:01:43.886Z,4.395
2022-08-19T10:02:58.897Z,4.545
2022-08-19T10:04:51.636Z,4.695
2022-08-19T10:06:01.158Z,4.695
2022-08-19T10:07:17.162Z,4.695
2022-08-19T10:09:02.811Z,4.695
2022-08-19T10:10:14.836Z,4.83
2022-08-19T10:12:00.879Z,4.98
2022-08-19T10:13:40.810Z,4.83
2022-08-19T10:14:45.776Z,4.83
2022-08-19T10:16:09.819Z,4.695
2022-08-19T10:18:11.981Z,4.695
2022-08-19T10:19:31.803Z,4.83
2022-08-19T10:20:35.224Z,4.83
2022-08-19T10:22:21.384Z,4.98
2022-08-19T10:23:25.107Z,4.695
2022-08-19T10:24:29.739Z,4.83
2022-08-19T10:26:06.631Z,4.98
2022-08-19T10:27:16.754Z,4.83
2022-08-19T10:28:30.732Z,4.545
2022-08-19T10:30:21.760Z,4.98
2022-08-19T10:32:09.878Z,5.28
2022-08-19T10:33:58.963Z,4.98
2022-08-19T10:36:19.384Z,4.545
2022-08-19T10:37:42.325Z,4.83
2022-08-19T10:39:10.473Z,5.28
2022-08-19T10:40:59.164Z,5.415
2022-08-19T10:42:02.082Z,5.565
2022-08-19T10:43:05.204Z,5.415
2022-08-19T10:44:48.995Z,5.415
2022-08-19T10:46:16.596Z,5.415
2022-08-19T10:47:37.671Z,5.565
2022-08-19T10:49:19.283Z,5.565
2022-08-19T10:50:34.491Z,5.415
2022-08-19T10:51:54.214Z,5.415
2022-08-19T10:53:43.011Z,5.565
2022-08-19T10:54:59.540Z,5.415
2022-08-19T10:56:08.598Z,4.98
2022-08-19T10:58:16.914Z,5.28
2022-08-19T10:59:19.779Z,5.415
2022-08-19T11:00:40.206Z,5.415
2022-08-19T11:01:43.700Z,4.98
2022-08-19T11:02:46.588Z,5.415
2022-08-19T11:04:28.916Z,3.51
2022-08-19T11:05:51.039Z,3.66
2022-08-19T11:06:54.583Z,3.075
2022-08-19T11:08:46.521Z,4.83
2022-08-19T11:09:56.337Z,5.28
2022-08-19T11:11:04.303Z,5.28
2022-08-19T11:12:42.435Z,5.565
2022-08-19T11:13:45.461Z,5.415
2022-08-19T11:14:51.236Z,5.28
2022-08-19T11:16:30.406Z,4.98
2022-08-19T11:17:33.384Z,5.28
2022-08-19T11:18:41.686Z,5.28
2022-08-19T11:20:16.164Z,5.415
2022-08-19T11:21:19.041Z,5.28
2022-08-19T11:22:44.691Z,4.98
2022-08-19T11:24:21.505Z,4.695
2022-08-19T11:25:24.557Z,4.98
2022-08-19T11:26:27.589Z,5.28
2022-08-19T11:28:02.480Z,5.28
2022-08-19T11:29:05.926Z,5.415
2022-08-19T11:30:08.771Z,5.28
2022-08-19T11:31:51.690Z,4.98
2022-08-19T11:33:00.378Z,5.28
2022-08-19T11:34:06.547Z,5.28
2022-08-19T11:35:41.962Z,5.415
2022-08-19T11:36:44.720Z,5.28
2022-08-19T11:37:47.881Z,4.83
2022-08-19T11:39:24.231Z,5.28
2022-08-19T11:40:28.340Z,5.28
2022-08-19T11:41:31.829Z,4.98
2022-08-19T11:43:06.373Z,5.28
2022-08-19T11:44:09.393Z,5.415
2022-08-19T11:45:12.268Z,5.28
2022-08-19T11:46:47.341Z,4.98
2022-08-19T11:47:50.143Z,5.415
2022-08-19T11:48:53.205Z,5.715
2022-08-19T11:50:28.629Z,5.715
2022-08-19T11:51:31.349Z,5.715
2022-08-19T11:52:34.500Z,5.565
2022-08-19T11:54:12.778Z,5.415
2022-08-19T11:55:15.786Z,5.565
2022-08-19T11:56:18.558Z,5.565
2022-08-19T11:57:53.878Z,5.715
2022-08-19T11:58:56.863Z,5.415
2022-08-19T11:59:59.985Z,4.245
2022-08-19T12:00:40.989Z,5.28
2022-08-19T12:01:46.217Z,5.28
2022-08-19T12:02:49.375Z,5.28
2022-08-19T12:04:26.022Z,5.415
2022-08-19T12:05:34.859Z,5.565
2022-08-19T12:06:38.050Z,5.415
2022-08-19T12:08:13.219Z,5.28
2022-08-19T12:09:15.894Z,3.225
2022-08-19T12:10:26.502Z,5.28
2022-08-19T12:12:03.017Z,5.28
2022-08-19T12:13:15.817Z,5.28
2022-08-19T12:14:20.488Z,5.28
2022-08-19T12:15:59.786Z,5.28
2022-08-19T12:17:13.862Z,5.28
2022-08-19T12:18:17.411Z,5.28
2022-08-19T12:19:52.500Z,5.28
2022-08-19T12:20:58.910Z,4.98
2022-08-19T12:22:02.041Z,4.98
2022-08-19T12:23:36.757Z,5.415
2022-08-19T12:24:39.633Z,2.79
2022-08-19T12:25:44.780Z,5.565
2022-08-19T12:28:03.151Z,5.28
2022-08-19T12:29:07.145Z,5.28
2022-08-19T12:30:09.962Z,5.28
2022-08-19T12:31:45.762Z,5.415
2022-08-19T12:32:49.810Z,5.415
2022-08-19T12:33:52.873Z,5.415
2022-08-19T12:35:27.831Z,5.415
2022-08-19T12:36:30.804Z,5.415
2022-08-19T12:37:33.819Z,5.415
2022-08-19T12:39:16.282Z,5.28
2022-08-19T12:40:20.136Z,5.28
2022-08-19T12:41:28.341Z,5.415
2022-08-19T12:43:13.269Z,5.415
2022-08-19T12:44:20.324Z,5.415
2022-08-19T12:45:35.381Z,5.28
2022-08-19T12:47:21.510Z,5.28
2022-08-19T12:49:01.723Z,5.28
2022-08-19T12:50:29.430Z,4.98
2022-08-19T12:52:04.836Z,4.83
2022-08-19T12:53:07.868Z,4.83
2022-08-19T12:54:10.797Z,4.695
2022-08-19T12:55:45.577Z,5.28
2022-08-19T12:56:51.713Z,5.28
2022-08-19T12:58:01.977Z,5.28
2022-08-19T12:59:41.576Z,5.28
2022-08-19T13:00:40.758Z,5.415
2022-08-19T13:01:46.237Z,5.415
2022-08-19T13:02:55.014Z,5.415
2022-08-19T13:04:29.742Z,5.415
2022-08-19T13:05:32.983Z,5.415
2022-08-19T13:06:37.383Z,5.28
2022-08-19T13:08:12.942Z,5.415
2022-08-19T13:09:22.011Z,5.415
2022-08-19T13:10:26.935Z,5.415
2022-08-19T13:12:01.869Z,5.565
2022-08-19T13:13:05.018Z,5.565
2022-08-19T13:14:08.390Z,5.565
2022-08-19T13:15:49.821Z,5.415
2022-08-19T13:16:52.798Z,5.415
2022-08-19T13:17:56.555Z,5.415
2022-08-19T13:19:31.763Z,5.28
2022-08-19T13:20:34.744Z,4.695
2022-08-19T13:21:42.151Z,4.98
2022-08-19T13:23:23.792Z,5.28
2022-08-19T13:24:29.456Z,5.28
2022-08-19T13:25:36.728Z,4.98
2022-08-19T13:27:11.601Z,4.695
2022-08-19T13:28:18.508Z,4.83
2022-08-19T13:29:23.139Z,4.695
2022-08-19T13:30:57.909Z,4.395
2022-08-19T13:32:00.938Z,4.545
2022-08-19T13:33:05.945Z,4.695
2022-08-19T13:34:42.575Z,4.695
2022-08-19T13:35:45.482Z,4.545
2022-08-19T13:36:48.433Z,4.545
2022-08-19T13:38:29.051Z,4.395
2022-08-19T13:39:32.006Z,4.395
2022-08-19T13:40:35.472Z,4.395
2022-08-19T13:42:20.862Z,4.095
2022-08-19T13:43:40.006Z,3.66
2022-08-19T13:44:43.081Z,3.075
2022-08-19T13:46:18.147Z,3.66
2022-08-19T13:47:22.693Z,4.245
2022-08-19T13:48:30.573Z,3.225
2022-08-19T13:50:05.638Z,3.075
2022-08-19T13:51:08.735Z,3.225
2022-08-19T13:52:11.658Z,3.225
2022-08-19T13:53:48.154Z,3.075
2022-08-19T13:54:51.218Z,2.925
2022-08-19T13:55:54.424Z,2.925
2022-08-19T13:57:34.880Z,3.51
2022-08-19T13:58:37.707Z,4.395
2022-08-19T13:59:40.652Z,3.66
2022-08-19T14:00:40.348Z,3.66
2022-08-19T14:01:47.362Z,3.66
2022-08-19T14:02:52.649Z,3.81
2022-08-19T14:04:27.744Z,3.225
2022-08-19T14:05:31.023Z,3.225
2022-08-19T14:06:35.021Z,4.095
2022-08-19T14:08:10.513Z,2.925
2022-08-19T14:09:14.656Z,2.925
2022-08-19T14:10:17.701Z,3.075
2022-08-19T14:11:52.665Z,2.925
2022-08-19T14:12:57.110Z,3.66
2022-08-19T14:14:01.420Z,3.66
2022-08-19T14:15:36.291Z,3.66
2022-08-19T14:16:39.335Z,3.225
2022-08-19T14:17:42.193Z,3.075
2022-08-19T14:19:17.220Z,3.075
2022-08-19T14:20:31.923Z,3.075
2022-08-19T14:21:37.527Z,3.81
2022-08-19T14:23:17.414Z,3.225
2022-08-19T14:24:20.457Z,2.925
2022-08-19T14:25:23.556Z,2.79
2022-08-19T14:27:01.775Z,2.64
2022-08-19T14:28:05.225Z,2.64
2022-08-19T14:29:08.236Z,2.64
2022-08-19T14:30:43.361Z,2.34
2022-08-19T14:31:52.883Z,2.34
2022-08-19T14:32:55.891Z,2.34
2022-08-19T14:34:37.378Z,2.19
2022-08-19T14:35:40.199Z,2.19
2022-08-19T14:36:47.594Z,2.055
2022-08-19T14:38:42.978Z,1.755
2022-08-19T14:39:47.274Z,1.32
2022-08-19T14:40:50.431Z,1.17
2022-08-19T14:42:28.470Z,1.02
2022-08-19T14:43:35.112Z,0.885
2022-08-19T14:44:38.252Z,0.735
2022-08-19T14:46:16.300Z,0.585
2022-08-19T14:47:28.825Z,0.585
2022-08-19T14:48:47.332Z,0.585
2022-08-19T14:50:46.662Z,0.435
2022-08-19T14:51:49.979Z,0.435
2022-08-19T14:52:53.255Z,0.585
2022-08-19T14:54:31.007Z,0.585
2022-08-19T14:55:36.072Z,0.735
2022-08-19T14:56:39.240Z,0.735
2022-08-19T14:58:38.911Z,0.885
2022-08-19T14:59:42.337Z,0.885
2022-08-19T15:00:42.642Z,1.02
2022-08-19T15:01:46.323Z,1.02
2022-08-19T15:03:03.606Z,1.02
2022-08-19T15:04:44.919Z,1.02
2022-08-19T15:05:47.871Z,0.885
2022-08-19T15:06:50.645Z,0.735
2022-08-19T15:08:29.047Z,0.885
2022-08-19T15:09:33.088Z,0.735
2022-08-19T15:10:36.447Z,1.02
2022-08-19T15:12:11.167Z,1.02
2022-08-19T15:13:20.353Z,1.17
2022-08-19T15:14:23.231Z,1.17
2022-08-19T15:16:05.522Z,1.32
2022-08-19T15:17:08.681Z,1.32
2022-08-19T15:18:15.073Z,1.32
2022-08-19T15:19:50.116Z,1.17
2022-08-19T15:20:55.776Z,1.17
2022-08-19T15:21:58.731Z,1.17
2022-08-19T15:23:33.709Z,1.32
2022-08-19T15:24:48.040Z,1.32
2022-08-19T15:25:51.384Z,1.17
2022-08-19T15:27:34.047Z,1.02
2022-08-19T15:28:37.089Z,1.02
2022-08-19T15:29:39.904Z,1.17
2022-08-19T15:31:30.913Z,1.32
2022-08-19T15:32:34.210Z,1.32
2022-08-19T15:33:37.488Z,1.47
2022-08-19T15:35:12.537Z,1.47
2022-08-19T15:36:18.891Z,1.755
2022-08-19T15:37:22.092Z,1.47
2022-08-19T15:39:03.065Z,1.755
2022-08-19T15:40:06.472Z,1.755
2022-08-19T15:41:10.391Z,1.755
2022-08-19T15:42:58.790Z,1.755
2022-08-19T15:44:03.392Z,1.755
2022-08-19T15:45:11.955Z,1.905
2022-08-19T15:46:52.290Z,1.905
2022-08-19T15:48:02.536Z,2.34
2022-08-19T15:49:14.162Z,1.905
2022-08-19T15:50:48.994Z,1.905
2022-08-19T15:51:51.955Z,1.905
2022-08-19T15:53:07.055Z,2.055
2022-08-19T15:54:41.783Z,1.905
2022-08-19T15:56:02.264Z,2.19
2022-08-19T15:57:15.393Z,2.34
2022-08-19T15:58:57.496Z,2.64
2022-08-19T16:00:43.723Z,2.34
2022-08-19T16:02:03.877Z,2.19
2022-08-19T16:03:10.657Z,1.905
2022-08-19T16:04:50.513Z,1.905
2022-08-19T16:06:09.818Z,1.905
2022-08-19T16:07:12.772Z,1.755
2022-08-19T16:08:16.265Z,1.47
2022-08-19T16:10:32.383Z,1.47
2022-08-19T16:11:46.213Z,1.755
2022-08-19T16:12:49.603Z,1.47
2022-08-19T16:14:26.992Z,1.755
2022-08-19T16:15:30.668Z,1.47
2022-08-19T16:16:39.689Z,1.47
2022-08-19T16:18:25.446Z,1.32
2022-08-19T16:19:32.966Z,1.02
2022-08-19T16:20:41.278Z,0.885
2022-08-19T16:22:16.218Z,0.885
2022-08-19T16:23:19.170Z,0.885
2022-08-19T16:24:22.253Z,0.735
2022-08-19T16:25:57.521Z,0.735
2022-08-19T16:27:00.521Z,0.735
2022-08-19T16:28:29.802Z,0.585
2022-08-19T16:30:07.951Z,0.435
2022-08-19T16:31:17.027Z,0.435
2022-08-19T16:32:20.104Z,0.585
2022-08-19T16:33:55.009Z,0.585
2022-08-19T16:34:57.898Z,0.735
2022-08-19T16:36:18.398Z,0.885
2022-08-19T16:37:53.126Z,0.885
2022-08-19T16:38:56.019Z,1.02
2022-08-19T16:40:01.600Z,1.02
2022-08-19T16:41:36.412Z,1.02
2022-08-19T16:42:39.301Z,1.02
2022-08-19T16:43:42.374Z,1.02
2022-08-19T16:45:17.283Z,1.02
2022-08-19T16:46:27.109Z,1.17
2022-08-19T16:47:30.327Z,1.17
2022-08-19T16:49:05.298Z,1.17
2022-08-19T16:50:49.200Z,1.02
2022-08-19T16:51:52.534Z,0.885
2022-08-19T16:53:34.807Z,0.585
2022-08-19T16:54:43.975Z,0.585
2022-08-19T16:55:47.633Z,0.585
2022-08-19T16:57:23.434Z,0.735
2022-08-19T16:58:33.913Z,0.885
2022-08-19T16:59:36.949Z,0.885
2022-08-19T17:00:40.465Z,1.02
2022-08-19T17:01:44.050Z,1.02
2022-08-19T17:02:53.151Z,1.02
2022-08-19T17:04:44.517Z,0.885
2022-08-19T17:06:00.250Z,0.885
2022-08-19T17:07:03.259Z,0.735
2022-08-19T17:08:45.673Z,0.735
2022-08-19T17:09:57.871Z,0.885
2022-08-19T17:11:34.257Z,0.735
2022-08-19T17:13:09.161Z,0.585
2022-08-19T17:14:12.224Z,0.585
2022-08-19T17:15:15.266Z,0.585
2022-08-19T17:16:50.303Z,0.435
2022-08-19T17:17:57.702Z,0.435
2022-08-19T17:19:00.618Z,0.435
2022-08-19T17:20:35.433Z,0.435
2022-08-19T17:21:38.096Z,0.435
2022-08-19T17:22:41.161Z,0.435
2022-08-19T17:24:21.426Z,0.585
2022-08-19T17:25:26.517Z,0.435
2022-08-19T17:26:36.651Z,0.435
2022-08-19T17:28:11.968Z,0.435
2022-08-19T17:29:14.956Z,0.435
2022-08-19T17:30:18.420Z,0.435
2022-08-19T17:31:53.259Z,0.435
2022-08-19T17:32:56.091Z,0.435
2022-08-19T17:34:09.354Z,0.435
2022-08-19T17:35:46.934Z,0.435
2022-08-19T17:36:49.999Z,0.435
2022-08-19T17:37:52.637Z,0.435
2022-08-19T17:39:29.615Z,0
2022-08-19T17:40:42.284Z,0.435
2022-08-19T17:41:45.621Z,0
2022-08-19T17:43:41.334Z,0
2022-08-19T17:44:50.723Z,0
2022-08-19T17:45:53.955Z,0
2022-08-19T17:47:32.671Z,0
2022-08-19T17:48:37.292Z,0
2022-08-19T17:49:40.378Z,0
2022-08-19T17:51:17.009Z,0